createdAt,value
2022-10-18T00:00:00.086Z,0
2022-10-18T00:04:59.898Z,0
2022-10-18T00:09:59.838Z,0
2022-10-18T00:15:00.135Z,0
2022-10-18T00:20:00.475Z,0
2022-10-18T00:25:00.078Z,0
2022-10-18T00:30:00.138Z,0
2022-10-18T00:34:59.981Z,0
2022-10-18T00:40:00.043Z,0
2022-10-18T00:45:00.041Z,0
2022-10-18T00:50:00.159Z,0
2022-10-18T00:54:59.692Z,0
2022-10-18T00:59:59.936Z,0
2022-10-18T01:05:00.005Z,0
2022-10-18T01:10:00.041Z,0
2022-10-18T01:14:59.667Z,0
2022-10-18T01:19:59.827Z,0
2022-10-18T01:25:00.087Z,0
2022-10-18T01:29:59.685Z,0
2022-10-18T01:34:59.665Z,0
2022-10-18T01:40:00.038Z,0
2022-10-18T01:45:00.548Z,0
2022-10-18T01:50:00.015Z,0
2022-10-18T01:54:59.863Z,0
2022-10-18T01:59:59.856Z,0
2022-10-18T02:04:59.830Z,0
2022-10-18T02:09:59.752Z,0
2022-10-18T02:14:59.818Z,0
2022-10-18T02:19:59.787Z,0
2022-10-18T02:24:59.743Z,0
2022-10-18T02:29:59.599Z,0
2022-10-18T02:34:59.691Z,0
2022-10-18T02:39:59.907Z,0
2022-10-18T02:44:59.855Z,0
2022-10-18T02:49:59.889Z,0
2022-10-18T02:54:59.585Z,0
2022-10-18T02:59:59.922Z,0
2022-10-18T03:04:59.620Z,0
2022-10-18T03:10:00.009Z,0
2022-10-18T03:14:59.596Z,0
2022-10-18T03:19:59.925Z,0
2022-10-18T03:24:59.849Z,0
2022-10-18T03:29:59.595Z,0
2022-10-18T03:34:59.758Z,0
2022-10-18T03:39:59.589Z,0
2022-10-18T03:44:59.774Z,0
2022-10-18T03:49:59.947Z,0
2022-10-18T03:54:59.477Z,0
2022-10-18T03:59:59.662Z,0
2022-10-18T04:04:59.520Z,0
2022-10-18T04:09:59.880Z,0
2022-10-18T04:14:59.523Z,0
2022-10-18T04:19:59.829Z,0
2022-10-18T04:24:59.650Z,0
2022-10-18T04:29:59.477Z,0
2022-10-18T04:34:59.886Z,0
2022-10-18T04:39:59.596Z,0
2022-10-18T04:44:59.556Z,0
2022-10-18T04:49:59.851Z,0
2022-10-18T04:54:59.419Z,0
2022-10-18T04:59:59.784Z,0
2022-10-18T05:04:59.771Z,0
2022-10-18T05:09:59.642Z,0
2022-10-18T05:14:59.690Z,0
2022-10-18T05:19:59.789Z,0
2022-10-18T05:24:59.741Z,0
2022-10-18T05:30:01.395Z,0
2022-10-18T05:34:59.759Z,0
2022-10-18T05:39:59.829Z,0
2022-10-18T05:44:59.682Z,0
2022-10-18T05:49:59.692Z,0
2022-10-18T05:54:59.642Z,0
2022-10-18T05:59:59.734Z,0
2022-10-18T06:04:59.464Z,0
2022-10-18T06:09:59.725Z,0
2022-10-18T06:14:59.438Z,0.3
2022-10-18T06:19:59.732Z,0.6
2022-10-18T06:24:59.533Z,1.5
2022-10-18T06:29:59.396Z,2.3
2022-10-18T06:34:59.523Z,3.3
2022-10-18T06:39:59.396Z,4.3
2022-10-18T06:44:59.528Z,5.9
2022-10-18T06:49:59.794Z,8.1
2022-10-18T06:54:59.397Z,10.6
2022-10-18T06:59:59.733Z,12.8
2022-10-18T07:04:59.417Z,13.9
2022-10-18T07:09:59.509Z,15.7
2022-10-18T07:14:59.627Z,17.2
2022-10-18T07:19:59.646Z,18.1
2022-10-18T07:24:59.290Z,19.7
2022-10-18T07:29:59.442Z,23.9
2022-10-18T07:34:59.499Z,25
2022-10-18T07:39:59.633Z,24.8
2022-10-18T07:44:59.399Z,26.2
2022-10-18T07:49:59.656Z,27.6
2022-10-18T07:54:59.326Z,27.5
2022-10-18T07:59:59.493Z,29.5
2022-10-18T08:04:59.301Z,30
2022-10-18T08:09:59.361Z,31.5
2022-10-18T08:14:59.245Z,32.6
2022-10-18T08:20:11.520Z,33.4
2022-10-18T08:24:59.514Z,34.2
2022-10-18T08:29:59.499Z,35
2022-10-18T08:34:59.180Z,35.7
2022-10-18T08:39:59.269Z,37.2
2022-10-18T08:45:05.003Z,40.2
2022-10-18T08:50:01.046Z,39.3
2022-10-18T08:54:59.569Z,39.2
2022-10-18T08:59:59.239Z,39.7
2022-10-18T09:05:02.759Z,40.4
2022-10-18T09:10:01.916Z,41.3
2022-10-18T09:14:59.397Z,41.3
2022-10-18T09:24:59.323Z,42.4
2022-10-18T09:29:59.488Z,43.1
2022-10-18T09:34:59.292Z,43.2
2022-10-18T09:39:59.247Z,43.1
2022-10-18T09:44:59.321Z,42.7
2022-10-18T09:49:59.405Z,42.6
2022-10-18T09:54:59.222Z,42.5
2022-10-18T09:59:59.270Z,42.5
2022-10-18T10:04:59.151Z,42.4
2022-10-18T10:09:59.337Z,42.2
2022-10-18T10:14:59.417Z,42.4
2022-10-18T10:19:59.131Z,42.8
2022-10-18T10:24:59.094Z,43.1
2022-10-18T10:30:04.174Z,43.2
2022-10-18T10:34:59.109Z,43.2
2022-10-18T10:40:17.356Z,43.3
2022-10-18T10:44:59.158Z,43.3
2022-10-18T10:49:59.456Z,44.2
2022-10-18T10:55:06.168Z,48
2022-10-18T10:59:59.479Z,57.2
2022-10-18T11:04:59.394Z,71.6
2022-10-18T11:09:59.351Z,101.4
2022-10-18T11:15:05.255Z,144.6
2022-10-18T11:19:59.205Z,193
2022-10-18T11:25:00.788Z,252.8
2022-10-18T11:29:59.306Z,317.6
2022-10-18T11:34:59.062Z,396.5
2022-10-18T11:39:59.137Z,473.6
2022-10-18T11:45:03.802Z,535.6
2022-10-18T11:49:59.244Z,588.7
2022-10-18T11:54:59.216Z,672.8
2022-10-18T11:59:59.437Z,759.2
2022-10-18T12:05:22.473Z,797.1
2022-10-18T12:09:59.108Z,790.7
2022-10-18T12:15:01.597Z,760.6
2022-10-18T12:19:59.380Z,832.6
2022-10-18T12:24:58.938Z,843.6
2022-10-18T12:29:58.967Z,617.1
2022-10-18T12:34:59.191Z,776.7
2022-10-18T12:40:13.379Z,820
2022-10-18T12:44:58.992Z,842.3
2022-10-18T12:49:59.334Z,843.5
2022-10-18T12:54:59.234Z,815.6
2022-10-18T12:59:59.191Z,626
2022-10-18T13:09:59.069Z,114.7
2022-10-18T13:15:20.492Z,67.3
2022-10-18T13:20:25.070Z,51.3
2022-10-18T13:25:02.308Z,45.3
2022-10-18T13:30:10.541Z,43.8
2022-10-18T13:34:59.130Z,42.9
2022-10-18T13:39:58.997Z,41.7
2022-10-18T13:44:59.140Z,41.1
2022-10-18T13:49:59.569Z,40.9
2022-10-18T13:54:59.052Z,40.4
2022-10-18T13:59:59.129Z,40.3
2022-10-18T14:05:23.397Z,40.5
2022-10-18T14:10:03.425Z,40
2022-10-18T14:15:03.016Z,38.9
2022-10-18T14:19:58.970Z,38.1
2022-10-18T14:24:59.427Z,37.5
2022-10-18T14:29:58.832Z,38.2
2022-10-18T14:35:30.478Z,38
2022-10-18T14:39:59.149Z,37.5
2022-10-18T14:44:58.860Z,37.1
2022-10-18T14:49:59.248Z,35.8
2022-10-18T14:54:59.422Z,35.1
2022-10-18T14:59:59.073Z,34.9
2022-10-18T15:04:58.881Z,35.3
2022-10-18T15:09:58.995Z,34.7
2022-10-18T15:14:59.074Z,33.8
2022-10-18T15:20:01.827Z,33
2022-10-18T15:25:05.453Z,31
2022-10-18T15:30:04.285Z,28.4
2022-10-18T15:34:58.958Z,26.6
2022-10-18T15:39:58.791Z,24.9
2022-10-18T15:44:58.959Z,23.2
2022-10-18T15:49:58.834Z,21.6
2022-10-18T15:54:58.772Z,20.1
2022-10-18T15:59:58.846Z,18.7
2022-10-18T16:05:00.414Z,17.5
2022-10-18T16:09:59.406Z,15.8
2022-10-18T16:14:59.041Z,13.9
2022-10-18T16:19:59.042Z,11.8
2022-10-18T16:24:59.066Z,9.8
2022-10-18T16:29:58.876Z,7.7
2022-10-18T16:34:58.917Z,5.3
2022-10-18T16:39:58.817Z,3.4
2022-10-18T16:44:58.815Z,1.9
2022-10-18T16:50:01.554Z,0.9
2022-10-18T16:54:58.875Z,0.3
2022-10-18T16:59:58.831Z,0.1
2022-10-18T17:04:58.801Z,0
2022-10-18T17:09:58.832Z,0
2022-10-18T17:14:59.134Z,0
2022-10-18T17:19:58.950Z,0
2022-10-18T17:24:59.101Z,0
2022-10-18T17:29:58.852Z,0
2022-10-18T17:34:58.778Z,0
2022-10-18T17:39:59.018Z,0
2022-10-18T17:44:58.805Z,0
2022-10-18T17:49:58.894Z,0
2022-10-18T17:54:58.967Z,0
2022-10-18T17:59:58.822Z,0
2022-10-18T18:04:58.879Z,0
2022-10-18T18:09:58.668Z,0
2022-10-18T18:14:58.784Z,0
2022-10-18T18:19:58.962Z,0
2022-10-18T18:24:58.808Z,0
2022-10-18T18:29:58.631Z,0
2022-10-18T18:34:58.826Z,0
2022-10-18T18:39:58.841Z,0
2022-10-18T18:44:58.939Z,0
2022-10-18T18:49:58.765Z,0
2022-10-18T18:54:59.238Z,0
2022-10-18T18:59:58.954Z,0
2022-10-18T19:04:58.590Z,0
2022-10-18T19:09:58.590Z,0
2022-10-18T19:14:58.610Z,0
2022-10-18T19:19:58.553Z,0
2022-10-18T19:24:58.693Z,0
2022-10-18T19:29:58.856Z,0
2022-10-18T19:34:59.064Z,0
2022-10-18T19:39:58.892Z,0
2022-10-18T19:44:58.500Z,0
2022-10-18T19:49:58.777Z,0
2022-10-18T19:54:58.760Z,0
2022-10-18T20:00:00.030Z,0
2022-10-18T20:04:58.708Z,0
2022-10-18T20:09:58.693Z,0
2022-10-18T20:14:58.514Z,0
2022-10-18T20:19:58.702Z,0
2022-10-18T20:24:58.502Z,0
2022-10-18T20:29:58.528Z,0
2022-10-18T20:34:58.529Z,0
2022-10-18T20:39:58.478Z,0
2022-10-18T20:44:58.562Z,0
2022-10-18T20:49:58.744Z,0
2022-10-18T20:54:58.486Z,0
2022-10-18T20:59:58.748Z,0
2022-10-18T21:04:58.806Z,0
2022-10-18T21:09:58.481Z,0
2022-10-18T21:14:58.757Z,0
2022-10-18T21:19:58.465Z,0
2022-10-18T21:24:58.724Z,0
2022-10-18T21:29:58.836Z,0
2022-10-18T21:34:58.669Z,0
2022-10-18T21:39:58.693Z,0
2022-10-18T21:44:58.430Z,0
2022-10-18T21:49:58.650Z,0
2022-10-18T21:54:58.398Z,0
2022-10-18T21:59:58.340Z,0
2022-10-18T22:04:58.738Z,0
2022-10-18T22:09:58.662Z,0
2022-10-18T22:14:58.629Z,0
2022-10-18T22:19:58.708Z,0
2022-10-18T22:24:58.452Z,0
2022-10-18T22:29:58.509Z,0
2022-10-18T22:34:58.380Z,0
2022-10-18T22:39:58.389Z,0
2022-10-18T22:44:58.629Z,0
2022-10-18T22:49:58.643Z,0
2022-10-18T22:54:58.430Z,0
2022-10-18T22:59:58.569Z,0
2022-10-18T23:04:58.716Z,0
2022-10-18T23:09:58.353Z,0
2022-10-18T23:14:58.261Z,0
2022-10-18T23:19:58.365Z,0
2022-10-18T23:24:58.449Z,0
2022-10-18T23:29:58.538Z,0
2022-10-18T23:34:58.551Z,0
2022-10-18T23:39:58.416Z,0
2022-10-18T23:44:58.248Z,0
2022-10-18T23:49:58.363Z,0
2022-10-18T23:54:58.537Z,0
2022-10-18T23:59:58.219Z,0
